Airfield :







YOU CAN JOIN US ON...

 
LOGIN :

Register | Disclaimer

   EN    FR    IT 

 









Legend :    VFR   Marginal VFR   IFR   Intensive IFR   Very Intensive IFR
Visi :
Ceiling :
>= 8 km
>= 3000ft
5 to 8 km
1000 to 3000 ft
1500m to 5 km
500 to 1000 ft
800 to 1500m
200 to 500 ft
< 800m
< 200 ft
Symbols :   Thunderstorms  Fog  Heavy snow  Heavy precipitations  Wind > 20 kt






- Airport Elevation : 180 ft
- IATA code : YZV


CYZV - Sept-Iles

CURRENT METAR :
  • 161000Z 27018G27KT 15SM BKN043 BKN220 M11/M17 A2929 RMK SC5CI1 SLP923

EXPIRED METARs :
  • 160900Z 27019G32KT 15SM SCT050 BKN180 M10/M16 A2924 RMK SC3AC3 SLP906
  • 160800Z 28024G30KT 15SM SCT040 BKN180 M09/M15 A2919 RMK SC4AC2 SLP891

TAF TAF CYZV
Valid from the 16 at 06:00 until the 17 at 06:00 UTC


160538Z 1606/1706 29015G25KT P6SM BKN040 OVC100
FM161200 29020G35KT P6SM SCT040
FM170400 29015G25KT P6SM SKC RMK NXT FCST BY 161200Z



MET'MAP, your aeronautical weather chart ! - Copyright ORBIFLY December 2007 - Disclaimer

ORBIFLY MET'MAP TEAM :

Programming & Development : Alexandra Zaïnal
Concept & original design : Baudouin d'Aumeries
Assistance for programming : Marc-Olivier Méhu
Technical & hardware support : Manuel Goepfert

Contact : metmap@orbifly.com




SOURCES & CREDITS :

   NOAA